<?xml version="1.0" encoding="UTF-8" standalone="no" ?>
<gpx xmlns="http://www.topografix.com/GPX/1/1" xmlns:xsi="http://www.w3.org/2001/XMLSchema-instance" xsi:schemaLocation="http://www.topografix.com/GPX/1/1 http://www.topografix.com/GPX/1/1/gpx.xsd" version="1.1" creator="VisuGPX - https://www.visugpx.com">
  <metadata>
    <name>ChapelleE_Vaillantiere_8-12km</name>
    <desc><![CDATA[gnerando idor: 8396171_8809195_10803642]]></desc>
  </metadata>
  <trk>
    <name><![CDATA[ChapelleE_LandesVaillantieres_8km-8809195]]></name>
    <extensions>
      <line xmlns="http://www.topografix.com/GPX/gpx_style/0/2">
        <color>008000</color>
        <width>4</width>
      </line>
    </extensions>
    <trkseg>
      <trkpt lat="47.33908" lon="-1.57377">
        <ele>37</ele>
        <time>2023-10-26T07:14:14Z</time>
      </trkpt>
      <trkpt lat="47.33876" lon="-1.57357">
        <ele>38</ele>
        <time>2023-10-26T07:15:00Z</time>
      </trkpt>
      <trkpt lat="47.33835" lon="-1.57426">
        <ele>41</ele>
        <time>2023-10-26T07:16:23Z</time>
      </trkpt>
      <trkpt lat="47.33803" lon="-1.57479">
        <ele>41</ele>
        <time>2023-10-26T07:17:28Z</time>
      </trkpt>
      <trkpt lat="47.3377" lon="-1.57542">
        <ele>42</ele>
        <time>2023-10-26T07:18:40Z</time>
      </trkpt>
      <trkpt lat="47.33745" lon="-1.57571">
        <ele>42</ele>
        <time>2023-10-26T07:19:22Z</time>
      </trkpt>
      <trkpt lat="47.33754" lon="-1.57618">
        <ele>42</ele>
        <time>2023-10-26T07:20:06Z</time>
      </trkpt>
      <trkpt lat="47.33726" lon="-1.57677">
        <ele>42</ele>
        <time>2023-10-26T07:21:11Z</time>
      </trkpt>
      <trkpt lat="47.33674" lon="-1.57724">
        <ele>43</ele>
        <time>2023-10-26T07:22:33Z</time>
      </trkpt>
      <trkpt lat="47.33638" lon="-1.57791">
        <ele>41</ele>
        <time>2023-10-26T07:23:50Z</time>
      </trkpt>
      <trkpt lat="47.33609" lon="-1.57842">
        <ele>38</ele>
        <time>2023-10-26T07:24:50Z</time>
      </trkpt>
      <trkpt lat="47.33586" lon="-1.57879">
        <ele>36</ele>
        <time>2023-10-26T07:25:36Z</time>
      </trkpt>
      <trkpt lat="47.33553" lon="-1.57912">
        <ele>33</ele>
        <time>2023-10-26T07:26:29Z</time>
      </trkpt>
      <trkpt lat="47.33533" lon="-1.57926">
        <ele>31</ele>
        <time>2023-10-26T07:26:58Z</time>
      </trkpt>
      <trkpt lat="47.33491" lon="-1.57947">
        <ele>30</ele>
        <time>2023-10-26T07:27:58Z</time>
      </trkpt>
      <trkpt lat="47.33441" lon="-1.57961">
        <ele>29</ele>
        <time>2023-10-26T07:29:05Z</time>
      </trkpt>
      <trkpt lat="47.33393" lon="-1.58073">
        <ele>29</ele>
        <time>2023-10-26T07:31:05Z</time>
      </trkpt>
      <trkpt lat="47.33357" lon="-1.58165">
        <ele>30</ele>
        <time>2023-10-26T07:32:41Z</time>
      </trkpt>
      <trkpt lat="47.33291" lon="-1.58302">
        <ele>34</ele>
        <time>2023-10-26T07:35:13Z</time>
      </trkpt>
      <trkpt lat="47.33251" lon="-1.58394">
        <ele>37</ele>
        <time>2023-10-26T07:36:52Z</time>
      </trkpt>
      <trkpt lat="47.33193" lon="-1.58516">
        <ele>41</ele>
        <time>2023-10-26T07:39:07Z</time>
      </trkpt>
      <trkpt lat="47.33262" lon="-1.58677">
        <ele>41</ele>
        <time>2023-10-26T07:41:59Z</time>
      </trkpt>
      <trkpt lat="47.33328" lon="-1.58811">
        <ele>40</ele>
        <time>2023-10-26T07:44:29Z</time>
      </trkpt>
      <trkpt lat="47.33371" lon="-1.58902">
        <ele>43</ele>
        <time>2023-10-26T07:46:09Z</time>
      </trkpt>
      <trkpt lat="47.3344" lon="-1.59056">
        <ele>48</ele>
        <time>2023-10-26T07:48:56Z</time>
      </trkpt>
      <trkpt lat="47.33497" lon="-1.59176">
        <ele>52</ele>
        <time>2023-10-26T07:51:09Z</time>
      </trkpt>
      <trkpt lat="47.33555" lon="-1.59292">
        <ele>54</ele>
        <time>2023-10-26T07:53:19Z</time>
      </trkpt>
      <trkpt lat="47.33586" lon="-1.59347">
        <ele>56</ele>
        <time>2023-10-26T07:54:24Z</time>
      </trkpt>
      <trkpt lat="47.33629" lon="-1.59453">
        <ele>55</ele>
        <time>2023-10-26T07:56:16Z</time>
      </trkpt>
      <trkpt lat="47.33645" lon="-1.5947">
        <ele>55</ele>
        <time>2023-10-26T07:56:42Z</time>
      </trkpt>
      <trkpt lat="47.3368" lon="-1.59442">
        <ele>54</ele>
        <time>2023-10-26T07:57:35Z</time>
      </trkpt>
      <trkpt lat="47.33702" lon="-1.59406">
        <ele>53</ele>
        <time>2023-10-26T07:58:19Z</time>
      </trkpt>
      <trkpt lat="47.33768" lon="-1.59299">
        <ele>52</ele>
        <time>2023-10-26T08:00:30Z</time>
      </trkpt>
      <trkpt lat="47.33845" lon="-1.59184">
        <ele>50</ele>
        <time>2023-10-26T08:02:56Z</time>
      </trkpt>
      <trkpt lat="47.33928" lon="-1.59079">
        <ele>48</ele>
        <time>2023-10-26T08:05:22Z</time>
      </trkpt>
      <trkpt lat="47.34019" lon="-1.58939">
        <ele>46</ele>
        <time>2023-10-26T08:08:17Z</time>
      </trkpt>
      <trkpt lat="47.34111" lon="-1.58803">
        <ele>45</ele>
        <time>2023-10-26T08:11:11Z</time>
      </trkpt>
      <trkpt lat="47.34179" lon="-1.58694">
        <ele>46</ele>
        <time>2023-10-26T08:13:25Z</time>
      </trkpt>
      <trkpt lat="47.34245" lon="-1.58592">
        <ele>47</ele>
        <time>2023-10-26T08:15:33Z</time>
      </trkpt>
      <trkpt lat="47.34315" lon="-1.58489">
        <ele>45</ele>
        <time>2023-10-26T08:17:45Z</time>
      </trkpt>
      <trkpt lat="47.34364" lon="-1.58416">
        <ele>45</ele>
        <time>2023-10-26T08:19:17Z</time>
      </trkpt>
      <trkpt lat="47.34439" lon="-1.58303">
        <ele>47</ele>
        <time>2023-10-26T08:21:41Z</time>
      </trkpt>
      <trkpt lat="47.34592" lon="-1.58078">
        <ele>43</ele>
        <time>2023-10-26T08:26:29Z</time>
      </trkpt>
      <trkpt lat="47.34642" lon="-1.58001">
        <ele>43</ele>
        <time>2023-10-26T08:28:05Z</time>
      </trkpt>
      <trkpt lat="47.34676" lon="-1.57951">
        <ele>42</ele>
        <time>2023-10-26T08:29:09Z</time>
      </trkpt>
      <trkpt lat="47.34758" lon="-1.57838">
        <ele>42</ele>
        <time>2023-10-26T08:31:39Z</time>
      </trkpt>
      <trkpt lat="47.3483" lon="-1.57732">
        <ele>39</ele>
        <time>2023-10-26T08:33:55Z</time>
      </trkpt>
      <trkpt lat="47.34894" lon="-1.57631">
        <ele>37</ele>
        <time>2023-10-26T08:36:00Z</time>
      </trkpt>
      <trkpt lat="47.3496" lon="-1.57546">
        <ele>34</ele>
        <time>2023-10-26T08:37:57Z</time>
      </trkpt>
      <trkpt lat="47.34998" lon="-1.57503">
        <ele>31</ele>
        <time>2023-10-26T08:39:00Z</time>
      </trkpt>
      <trkpt lat="47.35044" lon="-1.57478">
        <ele>24</ele>
        <time>2023-10-26T08:40:06Z</time>
      </trkpt>
      <trkpt lat="47.3511" lon="-1.57459">
        <ele>17</ele>
        <time>2023-10-26T08:41:36Z</time>
      </trkpt>
      <trkpt lat="47.35202" lon="-1.57437">
        <ele>13</ele>
        <time>2023-10-26T08:43:40Z</time>
      </trkpt>
      <trkpt lat="47.35224" lon="-1.57436">
        <ele>13</ele>
        <time>2023-10-26T08:44:09Z</time>
      </trkpt>
      <trkpt lat="47.35232" lon="-1.57417">
        <ele>14</ele>
        <time>2023-10-26T08:44:30Z</time>
      </trkpt>
      <trkpt lat="47.35178" lon="-1.57347">
        <ele>15</ele>
        <time>2023-10-26T08:46:05Z</time>
      </trkpt>
      <trkpt lat="47.3512" lon="-1.57258">
        <ele>23</ele>
        <time>2023-10-26T08:47:57Z</time>
      </trkpt>
      <trkpt lat="47.35066" lon="-1.57188">
        <ele>29</ele>
        <time>2023-10-26T08:49:33Z</time>
      </trkpt>
      <trkpt lat="47.35041" lon="-1.57162">
        <ele>30</ele>
        <time>2023-10-26T08:50:14Z</time>
      </trkpt>
      <trkpt lat="47.35014" lon="-1.57169">
        <ele>31</ele>
        <time>2023-10-26T08:50:50Z</time>
      </trkpt>
      <trkpt lat="47.34997" lon="-1.57183">
        <ele>32</ele>
        <time>2023-10-26T08:51:16Z</time>
      </trkpt>
      <trkpt lat="47.3497" lon="-1.5724">
        <ele>32</ele>
        <time>2023-10-26T08:52:19Z</time>
      </trkpt>
      <trkpt lat="47.34938" lon="-1.57297">
        <ele>34</ele>
        <time>2023-10-26T08:53:26Z</time>
      </trkpt>
      <trkpt lat="47.34907" lon="-1.57369">
        <ele>37</ele>
        <time>2023-10-26T08:54:43Z</time>
      </trkpt>
      <trkpt lat="47.34867" lon="-1.5746">
        <ele>38</ele>
        <time>2023-10-26T08:56:21Z</time>
      </trkpt>
      <trkpt lat="47.3483" lon="-1.57532">
        <ele>38</ele>
        <time>2023-10-26T08:57:43Z</time>
      </trkpt>
      <trkpt lat="47.3482" lon="-1.5754">
        <ele>38</ele>
        <time>2023-10-26T08:57:58Z</time>
      </trkpt>
      <trkpt lat="47.34764" lon="-1.57527">
        <ele>38</ele>
        <time>2023-10-26T08:59:14Z</time>
      </trkpt>
      <trkpt lat="47.34751" lon="-1.57511">
        <ele>38</ele>
        <time>2023-10-26T08:59:37Z</time>
      </trkpt>
      <trkpt lat="47.34761" lon="-1.57464">
        <ele>38</ele>
        <time>2023-10-26T09:00:21Z</time>
      </trkpt>
      <trkpt lat="47.34789" lon="-1.57402">
        <ele>39</ele>
        <time>2023-10-26T09:01:28Z</time>
      </trkpt>
      <trkpt lat="47.34813" lon="-1.57343">
        <ele>41</ele>
        <time>2023-10-26T09:02:31Z</time>
      </trkpt>
      <trkpt lat="47.3483" lon="-1.57282">
        <ele>41</ele>
        <time>2023-10-26T09:03:30Z</time>
      </trkpt>
      <trkpt lat="47.34833" lon="-1.5723">
        <ele>40</ele>
        <time>2023-10-26T09:04:18Z</time>
      </trkpt>
      <trkpt lat="47.34797" lon="-1.57203">
        <ele>38</ele>
        <time>2023-10-26T09:05:11Z</time>
      </trkpt>
      <trkpt lat="47.34761" lon="-1.57087">
        <ele>38</ele>
        <time>2023-10-26T09:07:07Z</time>
      </trkpt>
      <trkpt lat="47.34737" lon="-1.5696">
        <ele>36</ele>
        <time>2023-10-26T09:09:06Z</time>
      </trkpt>
      <trkpt lat="47.3472" lon="-1.56838">
        <ele>32</ele>
        <time>2023-10-26T09:10:59Z</time>
      </trkpt>
      <trkpt lat="47.34664" lon="-1.5674">
        <ele>25</ele>
        <time>2023-10-26T09:12:54Z</time>
      </trkpt>
      <trkpt lat="47.34643" lon="-1.56703">
        <ele>23</ele>
        <time>2023-10-26T09:13:38Z</time>
      </trkpt>
      <trkpt lat="47.34643" lon="-1.5666">
        <ele>21</ele>
        <time>2023-10-26T09:14:17Z</time>
      </trkpt>
      <trkpt lat="47.34652" lon="-1.56586">
        <ele>18</ele>
        <time>2023-10-26T09:15:25Z</time>
      </trkpt>
      <trkpt lat="47.34636" lon="-1.56497">
        <ele>14</ele>
        <time>2023-10-26T09:16:48Z</time>
      </trkpt>
      <trkpt lat="47.3456" lon="-1.56469">
        <ele>11</ele>
        <time>2023-10-26T09:18:33Z</time>
      </trkpt>
      <trkpt lat="47.34498" lon="-1.56447">
        <ele>9</ele>
        <time>2023-10-26T09:19:58Z</time>
      </trkpt>
      <trkpt lat="47.34462" lon="-1.56493">
        <ele>9</ele>
        <time>2023-10-26T09:21:01Z</time>
      </trkpt>
      <trkpt lat="47.34429" lon="-1.56576">
        <ele>11</ele>
        <time>2023-10-26T09:22:28Z</time>
      </trkpt>
      <trkpt lat="47.34419" lon="-1.56621">
        <ele>12</ele>
        <time>2023-10-26T09:23:11Z</time>
      </trkpt>
      <trkpt lat="47.34419" lon="-1.56665">
        <ele>13</ele>
        <time>2023-10-26T09:23:51Z</time>
      </trkpt>
      <trkpt lat="47.34414" lon="-1.56689">
        <ele>14</ele>
        <time>2023-10-26T09:24:14Z</time>
      </trkpt>
      <trkpt lat="47.344" lon="-1.56705">
        <ele>15</ele>
        <time>2023-10-26T09:24:37Z</time>
      </trkpt>
      <trkpt lat="47.34374" lon="-1.56717">
        <ele>16</ele>
        <time>2023-10-26T09:25:14Z</time>
      </trkpt>
      <trkpt lat="47.34341" lon="-1.56712">
        <ele>16</ele>
        <time>2023-10-26T09:25:58Z</time>
      </trkpt>
      <trkpt lat="47.343" lon="-1.56718">
        <ele>16</ele>
        <time>2023-10-26T09:26:53Z</time>
      </trkpt>
      <trkpt lat="47.34288" lon="-1.56708">
        <ele>16</ele>
        <time>2023-10-26T09:27:11Z</time>
      </trkpt>
      <trkpt lat="47.34264" lon="-1.5668">
        <ele>17</ele>
        <time>2023-10-26T09:27:52Z</time>
      </trkpt>
      <trkpt lat="47.34241" lon="-1.56632">
        <ele>17</ele>
        <time>2023-10-26T09:28:45Z</time>
      </trkpt>
      <trkpt lat="47.3423" lon="-1.5661">
        <ele>17</ele>
        <time>2023-10-26T09:29:10Z</time>
      </trkpt>
      <trkpt lat="47.34203" lon="-1.5663">
        <ele>18</ele>
        <time>2023-10-26T09:29:50Z</time>
      </trkpt>
      <trkpt lat="47.34142" lon="-1.56658">
        <ele>19</ele>
        <time>2023-10-26T09:31:16Z</time>
      </trkpt>
      <trkpt lat="47.34085" lon="-1.56687">
        <ele>21</ele>
        <time>2023-10-26T09:32:36Z</time>
      </trkpt>
      <trkpt lat="47.34001" lon="-1.56735">
        <ele>27</ele>
        <time>2023-10-26T09:34:36Z</time>
      </trkpt>
      <trkpt lat="47.33933" lon="-1.56765">
        <ele>29</ele>
        <time>2023-10-26T09:36:11Z</time>
      </trkpt>
      <trkpt lat="47.3387" lon="-1.56776">
        <ele>31</ele>
        <time>2023-10-26T09:37:36Z</time>
      </trkpt>
      <trkpt lat="47.33809" lon="-1.56776">
        <ele>31</ele>
        <time>2023-10-26T09:38:57Z</time>
      </trkpt>
      <trkpt lat="47.33778" lon="-1.56776">
        <ele>31</ele>
        <time>2023-10-26T09:39:38Z</time>
      </trkpt>
      <trkpt lat="47.33769" lon="-1.56902">
        <ele>31</ele>
        <time>2023-10-26T09:41:33Z</time>
      </trkpt>
      <trkpt lat="47.33759" lon="-1.57018">
        <ele>35</ele>
        <time>2023-10-26T09:43:19Z</time>
      </trkpt>
      <trkpt lat="47.33733" lon="-1.57209">
        <ele>38</ele>
        <time>2023-10-26T09:46:15Z</time>
      </trkpt>
      <trkpt lat="47.33727" lon="-1.57272">
        <ele>39</ele>
        <time>2023-10-26T09:47:12Z</time>
      </trkpt>
      <trkpt lat="47.33707" lon="-1.57358">
        <ele>40</ele>
        <time>2023-10-26T09:48:35Z</time>
      </trkpt>
      <trkpt lat="47.33706" lon="-1.57404">
        <ele>41</ele>
        <time>2023-10-26T09:49:16Z</time>
      </trkpt>
      <trkpt lat="47.33717" lon="-1.57435">
        <ele>41</ele>
        <time>2023-10-26T09:49:48Z</time>
      </trkpt>
      <trkpt lat="47.33766" lon="-1.57421">
        <ele>41</ele>
        <time>2023-10-26T09:50:55Z</time>
      </trkpt>
      <trkpt lat="47.33823" lon="-1.57419">
        <ele>41</ele>
        <time>2023-10-26T09:52:11Z</time>
      </trkpt>
      <trkpt lat="47.33867" lon="-1.5735">
        <ele>38</ele>
        <time>2023-10-26T09:53:36Z</time>
      </trkpt>
      <trkpt lat="47.33915" lon="-1.5738">
        <ele>37</ele>
        <time>2023-10-26T09:54:46Z</time>
      </trkpt>
    </trkseg>
  </trk>
</gpx>